createdAt,value
2023-03-06T00:01:02.672Z,76.30
2023-03-06T00:03:30.621Z,76.40
2023-03-06T00:06:35.725Z,76.40
2023-03-06T00:09:22.543Z,76.40
2023-03-06T00:11:50.836Z,76.30
2023-03-06T00:14:20.368Z,76.40
2023-03-06T00:16:49.673Z,76.30
2023-03-06T00:19:17.294Z,76.30
2023-03-06T00:21:46.924Z,76.30
2023-03-06T00:24:17.810Z,76.40
2023-03-06T00:26:46.973Z,76.40
2023-03-06T00:29:14.715Z,76.40
2023-03-06T00:31:47.284Z,76.60
2023-03-06T00:34:15.392Z,76.60
2023-03-06T00:36:47.165Z,76.60
2023-03-06T00:39:15.065Z,76.60
2023-03-06T00:41:45.389Z,76.80
2023-03-06T00:44:17.056Z,76.70
2023-03-06T00:46:45.328Z,76.80
2023-03-06T00:49:13.984Z,76.80
2023-03-06T00:51:42.039Z,76.90
2023-03-06T00:54:11.668Z,76.80
2023-03-06T00:56:42.780Z,76.80
2023-03-06T00:59:11.671Z,76.80
2023-03-06T01:01:40.690Z,76.80
2023-03-06T01:04:08.612Z,76.80
2023-03-06T01:06:36.986Z,76.80
2023-03-06T01:09:05.772Z,76.80
2023-03-06T01:11:34.700Z,76.80
2023-03-06T01:14:02.792Z,76.70
2023-03-06T01:16:31.284Z,76.60
2023-03-06T01:18:59.407Z,76.40
2023-03-06T01:21:28.774Z,76.40
2023-03-06T01:23:57.105Z,76.50
2023-03-06T01:26:25.402Z,76.70
2023-03-06T01:28:54.112Z,76.80
2023-03-06T01:31:25.493Z,76.90
2023-03-06T01:33:54.500Z,77.10
2023-03-06T01:36:24.578Z,77.20
2023-03-06T01:38:52.269Z,77.30
2023-03-06T01:41:21.941Z,77.50
2023-03-06T01:43:50.588Z,77.50
2023-03-06T01:47:02.535Z,77.50
2023-03-06T01:49:37.907Z,77.80
2023-03-06T01:52:29.450Z,77.70
2023-03-06T01:55:06.000Z,77.80
2023-03-06T01:57:40.533Z,77.80
2023-03-06T02:00:13.258Z,77.90
2023-03-06T02:02:46.577Z,78.10
2023-03-06T02:05:14.685Z,78.30
2023-03-06T02:07:44.636Z,78.40
2023-03-06T02:10:15.120Z,78.40
2023-03-06T02:12:44.862Z,78.50
2023-03-06T02:15:14.695Z,78.40
2023-03-06T02:17:45.914Z,78.70
2023-03-06T02:20:38.905Z,79.00
2023-03-06T02:23:10.729Z,79.30
2023-03-06T02:25:46.110Z,79.00
2023-03-06T02:28:18.909Z,79.00
2023-03-06T02:30:49.291Z,78.80
2023-03-06T02:33:20.530Z,78.80
2023-03-06T02:35:59.546Z,78.70
2023-03-06T02:38:40.616Z,78.60
2023-03-06T02:41:09.855Z,78.70
2023-03-06T02:43:41.212Z,78.90
2023-03-06T02:46:08.965Z,79.10
2023-03-06T02:48:37.209Z,79.20
2023-03-06T02:51:04.972Z,79.30
2023-03-06T02:53:33.676Z,79.20
2023-03-06T02:56:02.403Z,79.20
2023-03-06T02:58:30.607Z,79.30
2023-03-06T03:00:59.902Z,79.70
2023-03-06T03:03:28.765Z,79.70
2023-03-06T03:05:56.590Z,79.80
2023-03-06T03:08:29.958Z,80.00
2023-03-06T03:11:01.349Z,80.20
2023-03-06T03:13:38.103Z,80.00
2023-03-06T03:16:14.405Z,80.00
2023-03-06T03:18:44.907Z,80.10
2023-03-06T03:21:19.573Z,80.20
2023-03-06T03:23:51.670Z,80.10
2023-03-06T03:26:22.079Z,80.10
2023-03-06T03:29:13.681Z,80.10
2023-03-06T03:31:41.588Z,80.20
2023-03-06T03:34:09.610Z,80.20
2023-03-06T03:36:40.287Z,80.40
2023-03-06T03:39:10.811Z,80.30
2023-03-06T03:41:40.259Z,80.30
2023-03-06T03:44:10.621Z,80.30
2023-03-06T03:46:39.207Z,80.30
2023-03-06T03:49:14.181Z,80.30
2023-03-06T03:51:44.808Z,80.50
2023-03-06T03:54:15.579Z,80.50
2023-03-06T03:56:46.345Z,80.50
2023-03-06T03:59:22.287Z,80.50
2023-03-06T04:02:01.513Z,80.50
2023-03-06T04:04:31.105Z,80.50
2023-03-06T04:06:59.213Z,80.50
2023-03-06T04:09:27.546Z,80.50
2023-03-06T04:11:55.665Z,80.50
2023-03-06T04:14:24.183Z,80.50
2023-03-06T04:16:52.221Z,80.50
2023-03-06T04:19:20.313Z,80.60
2023-03-06T04:21:48.123Z,80.70
2023-03-06T04:24:17.132Z,80.70
2023-03-06T04:26:44.951Z,80.70
2023-03-06T04:29:14.155Z,80.70
2023-03-06T04:31:41.903Z,80.70
2023-03-06T04:34:10.221Z,80.80
2023-03-06T04:36:38.855Z,80.90
2023-03-06T04:39:12.896Z,81.00
2023-03-06T04:41:41.824Z,80.90
2023-03-06T04:44:11.120Z,80.90
2023-03-06T04:46:38.974Z,80.90
2023-03-06T04:49:07.829Z,80.80
2023-03-06T04:51:37.235Z,80.90
2023-03-06T04:54:05.861Z,80.90
2023-03-06T04:56:34.929Z,80.90
2023-03-06T04:59:06.044Z,80.80
2023-03-06T05:01:33.871Z,80.90
2023-03-06T05:04:02.246Z,81.00
2023-03-06T05:06:30.030Z,81.00
2023-03-06T05:08:58.626Z,81.00
2023-03-06T05:11:27.453Z,81.00
2023-03-06T05:13:56.524Z,80.90
2023-03-06T05:16:25.290Z,80.90
2023-03-06T05:18:54.489Z,81.10
2023-03-06T05:21:23.400Z,81.00
2023-03-06T05:23:53.903Z,80.90
2023-03-06T05:26:22.828Z,80.90
2023-03-06T05:28:51.160Z,80.90
2023-03-06T05:31:18.912Z,80.90
2023-03-06T05:33:47.256Z,80.90
2023-03-06T05:36:15.907Z,80.90
2023-03-06T05:38:44.345Z,80.90
2023-03-06T05:41:14.374Z,80.80
2023-03-06T05:43:43.047Z,80.80
2023-03-06T05:46:12.708Z,80.80
2023-03-06T05:48:41.460Z,80.80
2023-03-06T05:51:11.240Z,80.80
2023-03-06T05:53:40.770Z,80.90
2023-03-06T05:56:11.896Z,80.80
2023-03-06T05:58:41.329Z,80.90
2023-03-06T06:01:17.881Z,80.90
2023-03-06T06:03:46.629Z,80.80
2023-03-06T06:06:15.610Z,80.70
2023-03-06T06:08:44.450Z,80.60
2023-03-06T06:11:14.289Z,80.60
2023-03-06T06:13:42.609Z,80.60
2023-03-06T06:16:19.444Z,80.60
2023-03-06T06:18:48.539Z,80.60
2023-03-06T06:21:16.701Z,80.50
2023-03-06T06:23:44.786Z,80.60
2023-03-06T06:26:12.495Z,80.50
2023-03-06T06:28:41.659Z,80.50
2023-03-06T06:31:11.540Z,80.50
2023-03-06T06:33:41.488Z,80.50
2023-03-06T06:36:20.609Z,80.50
2023-03-06T06:38:49.924Z,80.50
2023-03-06T06:41:42.277Z,80.50
2023-03-06T06:44:09.079Z,80.50
2023-03-06T06:47:20.695Z,80.40
2023-03-06T06:49:29.697Z,80.30
2023-03-06T06:51:58.694Z,80.40
2023-03-06T06:54:28.244Z,80.30
2023-03-06T06:56:56.160Z,80.30
2023-03-06T06:59:25.757Z,80.50
2023-03-06T07:01:54.167Z,80.30
2023-03-06T07:04:24.295Z,80.40
2023-03-06T07:06:56.357Z,80.40
2023-03-06T07:09:30.272Z,80.40
2023-03-06T07:11:58.568Z,80.20
2023-03-06T07:14:26.821Z,80.00
2023-03-06T07:16:54.618Z,80.10
2023-03-06T07:19:25.328Z,80.10
2023-03-06T07:21:53.699Z,80.00
2023-03-06T07:24:21.985Z,79.90
2023-03-06T07:26:49.971Z,79.60
2023-03-06T07:29:18.906Z,79.90
2023-03-06T07:31:47.335Z,80.20
2023-03-06T07:34:15.966Z,80.00
2023-03-06T07:36:44.912Z,80.00
2023-03-06T07:39:13.006Z,79.70
2023-03-06T07:41:43.908Z,79.70
2023-03-06T07:44:13.582Z,79.30
2023-03-06T07:46:41.459Z,79.50
2023-03-06T07:49:10.015Z,79.50
2023-03-06T07:51:38.222Z,78.90
2023-03-06T07:54:06.811Z,79.10
2023-03-06T07:56:37.550Z,79.20
2023-03-06T07:59:06.076Z,79.40
2023-03-06T08:01:33.889Z,79.10
2023-03-06T08:04:02.646Z,78.10
2023-03-06T08:06:30.651Z,77.70
2023-03-06T08:08:59.901Z,77.00
2023-03-06T08:11:30.994Z,76.60
2023-03-06T08:14:00.108Z,76.80
2023-03-06T08:16:30.507Z,76.00
2023-03-06T08:18:59.399Z,76.70
2023-03-06T08:21:29.415Z,76.80
2023-03-06T08:23:57.718Z,76.10
2023-03-06T08:26:34.944Z,76.10
2023-03-06T08:29:03.959Z,76.20
2023-03-06T08:31:34.733Z,75.90
2023-03-06T08:34:06.974Z,76.70
2023-03-06T08:36:35.744Z,76.70
2023-03-06T08:39:05.439Z,75.80
2023-03-06T08:41:35.029Z,75.40
2023-03-06T08:44:05.059Z,74.80
2023-03-06T08:46:34.333Z,75.20
2023-03-06T08:49:04.118Z,75.30
2023-03-06T08:51:33.658Z,74.20
2023-03-06T08:54:03.361Z,74.00
2023-03-06T08:56:34.093Z,74.10
2023-03-06T08:59:05.331Z,73.70
2023-03-06T09:01:36.986Z,73.70
2023-03-06T09:04:07.968Z,73.90
2023-03-06T09:06:39.635Z,74.90
2023-03-06T09:09:09.524Z,74.40
2023-03-06T09:11:37.772Z,73.50
2023-03-06T09:14:08.250Z,73.40
2023-03-06T09:16:37.676Z,72.10
2023-03-06T09:19:05.968Z,72.20
2023-03-06T09:21:33.928Z,73.00
2023-03-06T09:24:04.777Z,72.50
2023-03-06T09:26:51.679Z,72.50
2023-03-06T09:29:21.699Z,71.90
2023-03-06T09:31:50.723Z,71.50
2023-03-06T09:34:19.331Z,70.40
2023-03-06T09:36:56.872Z,70.70
2023-03-06T09:39:28.166Z,71.00
2023-03-06T09:42:00.418Z,70.60
2023-03-06T09:44:32.526Z,70.80
2023-03-06T09:47:28.376Z,71.70
2023-03-06T09:50:14.907Z,72.00
2023-03-06T09:52:49.917Z,71.20
2023-03-06T09:55:22.646Z,70.00
2023-03-06T09:58:27.834Z,69.70
2023-03-06T10:01:22.973Z,68.20
2023-03-06T10:04:01.404Z,68.00
2023-03-06T10:06:48.338Z,66.60
2023-03-06T10:09:33.397Z,67.20
2023-03-06T10:12:14.411Z,68.00
2023-03-06T10:14:55.165Z,68.10
2023-03-06T10:17:26.428Z,66.90
2023-03-06T10:19:54.337Z,66.20
2023-03-06T10:22:35.532Z,66.90
2023-03-06T10:25:11.720Z,64.30
2023-03-06T10:27:50.051Z,63.70
2023-03-06T10:30:58.230Z,64.50
2023-03-06T10:33:52.583Z,65.30
2023-03-06T10:36:24.854Z,65.00
2023-03-06T10:38:53.447Z,65.50
2023-03-06T10:41:32.291Z,66.20
2023-03-06T10:44:00.732Z,66.10
2023-03-06T10:46:42.654Z,66.00
2023-03-06T10:49:35.476Z,65.70
2023-03-06T10:52:07.293Z,66.40
2023-03-06T10:54:39.953Z,66.20
2023-03-06T10:57:28.917Z,66.60
2023-03-06T11:00:05.983Z,67.00
2023-03-06T11:02:38.801Z,67.20
2023-03-06T11:05:20.045Z,66.90
2023-03-06T11:07:56.625Z,67.10
2023-03-06T11:10:25.290Z,67.40
2023-03-06T11:13:00.359Z,67.40
2023-03-06T11:15:30.155Z,66.70
2023-03-06T11:18:26.282Z,66.80
2023-03-06T11:20:59.119Z,67.50
2023-03-06T11:23:45.094Z,67.80
2023-03-06T11:26:16.767Z,67.40
2023-03-06T11:29:18.997Z,67.30
2023-03-06T11:31:54.933Z,67.20
2023-03-06T11:34:47.661Z,67.70
2023-03-06T11:37:33.277Z,67.30
2023-03-06T11:40:32.336Z,67.50
2023-03-06T11:43:15.036Z,67.80
2023-03-06T11:45:47.770Z,67.80
2023-03-06T11:48:16.242Z,68.10
2023-03-06T11:50:54.429Z,68.40
2023-03-06T11:53:30.009Z,68.70
2023-03-06T11:56:20.692Z,69.00
2023-03-06T11:58:58.280Z,68.30
2023-03-06T12:01:45.473Z,68.20
2023-03-06T12:04:29.466Z,67.90
2023-03-06T12:07:00.394Z,68.00
2023-03-06T12:09:47.824Z,68.00
2023-03-06T12:12:31.027Z,68.00
2023-03-06T12:15:36.605Z,67.80
2023-03-06T12:18:19.651Z,68.20
2023-03-06T12:21:04.835Z,68.20
2023-03-06T12:24:04.457Z,68.00
2023-03-06T12:26:38.550Z,68.00
2023-03-06T12:29:24.365Z,67.90
2023-03-06T12:32:14.705Z,68.00
2023-03-06T12:35:03.077Z,67.90
2023-03-06T12:37:35.464Z,67.60
2023-03-06T12:40:15.819Z,67.60
2023-03-06T12:43:30.464Z,68.00
2023-03-06T12:46:10.971Z,67.80
2023-03-06T12:48:42.331Z,67.90
2023-03-06T12:51:16.926Z,67.90
2023-03-06T12:53:46.771Z,68.00
2023-03-06T12:56:19.528Z,68.30
2023-03-06T12:58:53.793Z,68.00
2023-03-06T13:01:37.693Z,68.30
2023-03-06T13:04:26.982Z,68.20
2023-03-06T13:07:04.083Z,68.00
2023-03-06T13:09:59.027Z,68.00
2023-03-06T13:12:44.842Z,67.90
2023-03-06T13:15:44.172Z,68.10
2023-03-06T13:18:24.203Z,68.70
2023-03-06T13:20:57.887Z,68.90
2023-03-06T13:23:49.499Z,69.00
2023-03-06T13:26:27.051Z,69.10
2023-03-06T13:28:58.382Z,68.70
2023-03-06T13:31:38.417Z,68.30
2023-03-06T13:34:34.098Z,68.30
2023-03-06T13:37:40.126Z,68.70
2023-03-06T13:40:12.295Z,68.90
2023-03-06T13:42:44.483Z,69.00
2023-03-06T13:45:28.042Z,69.00
2023-03-06T13:48:22.595Z,68.90
2023-03-06T13:50:51.681Z,68.50
2023-03-06T13:53:23.827Z,68.70
2023-03-06T13:56:11.988Z,68.80
2023-03-06T13:59:03.555Z,69.00
2023-03-06T14:02:12.197Z,69.00
2023-03-06T14:04:57.966Z,69.00
2023-03-06T14:07:34.382Z,68.80
2023-03-06T14:10:19.160Z,68.80
2023-03-06T14:12:52.402Z,68.70
2023-03-06T14:15:33.662Z,68.70
2023-03-06T14:18:07.563Z,68.60
2023-03-06T14:20:44.402Z,68.50
2023-03-06T14:23:27.773Z,68.40
2023-03-06T14:26:20.578Z,68.70
2023-03-06T14:28:58.733Z,68.20
2023-03-06T14:31:32.093Z,68.30
2023-03-06T14:34:07.148Z,68.60
2023-03-06T14:36:48.227Z,68.70
2023-03-06T14:39:21.311Z,68.80
2023-03-06T14:41:50.160Z,69.10
2023-03-06T14:44:24.218Z,69.50
2023-03-06T14:46:59.961Z,69.70
2023-03-06T14:49:29.342Z,69.90
2023-03-06T14:52:02.851Z,70.30
2023-03-06T14:54:38.034Z,70.50
2023-03-06T14:57:13.190Z,70.50
2023-03-06T15:00:04.962Z,70.60
2023-03-06T15:02:34.196Z,70.40
2023-03-06T15:05:22.298Z,70.30
2023-03-06T15:07:53.209Z,70.30
2023-03-06T15:10:27.911Z,70.30
2023-03-06T15:12:56.597Z,70.40
2023-03-06T15:15:29.424Z,70.50
2023-03-06T15:17:59.520Z,70.50
2023-03-06T15:20:56.272Z,70.30
2023-03-06T15:23:36.408Z,70.20
2023-03-06T15:26:20.487Z,70.20
2023-03-06T15:29:09.896Z,70.40
2023-03-06T15:31:44.625Z,70.70
2023-03-06T15:34:16.637Z,70.50
2023-03-06T15:36:49.265Z,70.30
2023-03-06T15:39:39.267Z,70.20
2023-03-06T15:42:16.634Z,70.20
2023-03-06T15:44:49.247Z,70.20
2023-03-06T15:47:18.127Z,70.20
2023-03-06T15:49:47.100Z,70.30
2023-03-06T15:52:16.215Z,70.50
2023-03-06T15:54:45.248Z,70.70
2023-03-06T15:57:29.913Z,70.80
2023-03-06T16:00:01.838Z,71.00
2023-03-06T16:02:39.758Z,71.10
2023-03-06T16:05:17.410Z,71.00
2023-03-06T16:07:46.016Z,71.10
2023-03-06T16:10:17.872Z,71.20
2023-03-06T16:12:52.476Z,71.10
2023-03-06T16:15:30.726Z,71.20
2023-03-06T16:18:01.216Z,71.00
2023-03-06T16:20:31.235Z,71.00
2023-03-06T16:23:00.002Z,71.10
2023-03-06T16:25:32.819Z,71.10
2023-03-06T16:28:01.265Z,71.20
2023-03-06T16:30:33.462Z,71.20
2023-03-06T16:33:02.644Z,71.20
2023-03-06T16:35:31.794Z,71.30
2023-03-06T16:38:01.342Z,71.30
2023-03-06T16:40:41.592Z,71.40
2023-03-06T16:43:12.536Z,71.40
2023-03-06T16:45:45.049Z,71.40
2023-03-06T16:48:18.742Z,71.40
2023-03-06T16:50:47.240Z,71.40
2023-03-06T16:53:17.107Z,71.50
2023-03-06T16:55:46.376Z,71.50
2023-03-06T16:58:15.758Z,71.50
2023-03-06T17:00:49.876Z,71.50
2023-03-06T17:03:19.506Z,71.50
2023-03-06T17:05:47.998Z,71.50
2023-03-06T17:08:20.816Z,71.50
2023-03-06T17:10:50.575Z,71.50
2023-03-06T17:13:19.067Z,71.50
2023-03-06T17:15:57.413Z,71.50
2023-03-06T17:18:28.524Z,71.60
2023-03-06T17:20:59.318Z,71.70
2023-03-06T17:23:33.388Z,71.60
2023-03-06T17:26:21.526Z,71.70
2023-03-06T17:28:49.758Z,71.70
2023-03-06T17:31:28.709Z,71.70
2023-03-06T17:34:00.877Z,71.80
2023-03-06T17:36:31.175Z,71.80
2023-03-06T17:39:02.445Z,71.80
2023-03-06T17:41:33.573Z,71.70
2023-03-06T17:44:03.181Z,71.80
2023-03-06T17:46:32.502Z,71.90
2023-03-06T17:49:01.085Z,72.00
2023-03-06T17:51:34.152Z,72.20
2023-03-06T17:54:02.710Z,72.30
2023-03-06T17:56:33.872Z,72.50
2023-03-06T17:59:03.550Z,72.60
2023-03-06T18:01:38.079Z,72.50
2023-03-06T18:04:11.918Z,72.30
2023-03-06T18:06:41.967Z,72.30
2023-03-06T18:09:12.200Z,72.30
2023-03-06T18:11:42.320Z,72.40
2023-03-06T18:14:12.227Z,72.40
2023-03-06T18:16:42.520Z,72.50
2023-03-06T18:19:12.655Z,72.60
2023-03-06T18:21:50.299Z,72.60
2023-03-06T18:24:20.875Z,72.60
2023-03-06T18:26:50.779Z,72.60
2023-03-06T18:29:21.863Z,72.80
2023-03-06T18:31:53.968Z,72.70
2023-03-06T18:34:23.557Z,72.80
2023-03-06T18:36:56.068Z,72.90
2023-03-06T18:39:29.061Z,72.70
2023-03-06T18:42:00.010Z,72.60
2023-03-06T18:44:34.143Z,72.60
2023-03-06T18:47:05.724Z,72.80
2023-03-06T18:49:35.031Z,72.80
2023-03-06T18:52:06.014Z,72.70
2023-03-06T18:54:36.247Z,72.70
2023-03-06T18:57:06.848Z,72.80
2023-03-06T18:59:40.268Z,72.70
2023-03-06T19:02:12.436Z,72.90
2023-03-06T19:04:45.556Z,72.90
2023-03-06T19:07:15.360Z,72.90
2023-03-06T19:09:46.952Z,72.80
2023-03-06T19:12:20.691Z,72.80
2023-03-06T19:14:51.232Z,72.80
2023-03-06T19:17:20.541Z,72.70
2023-03-06T19:19:52.673Z,72.70
2023-03-06T19:22:25.586Z,72.80
2023-03-06T19:24:58.523Z,72.90
2023-03-06T19:27:29.234Z,73.00
2023-03-06T19:30:04.145Z,73.00
2023-03-06T19:32:38.936Z,72.90
2023-03-06T19:35:11.722Z,72.90
2023-03-06T19:37:42.740Z,73.00
2023-03-06T19:40:16.579Z,73.10
2023-03-06T19:42:47.378Z,73.10
2023-03-06T19:45:18.926Z,73.10
2023-03-06T19:47:52.530Z,73.10
2023-03-06T19:50:22.139Z,73.00
2023-03-06T19:52:56.658Z,73.00
2023-03-06T19:55:29.049Z,73.00
2023-03-06T19:57:58.070Z,73.00
2023-03-06T20:00:28.822Z,73.10
2023-03-06T20:02:59.803Z,73.30
2023-03-06T20:05:30.599Z,73.50
2023-03-06T20:08:01.232Z,73.50
2023-03-06T20:10:31.055Z,73.40
2023-03-06T20:13:03.023Z,73.50
2023-03-06T20:15:36.505Z,73.60
2023-03-06T20:18:10.025Z,73.60
2023-03-06T20:20:41.122Z,73.60
2023-03-06T20:23:15.115Z,73.70
2023-03-06T20:25:46.063Z,73.70
2023-03-06T20:28:16.811Z,73.70
2023-03-06T20:30:46.720Z,73.80
2023-03-06T20:33:24.257Z,73.70
2023-03-06T20:35:56.128Z,73.70
2023-03-06T20:38:31.063Z,73.60
2023-03-06T20:41:01.722Z,73.60
2023-03-06T20:43:34.658Z,73.60
2023-03-06T20:46:06.975Z,73.60
2023-03-06T20:48:38.991Z,73.60
2023-03-06T20:51:19.323Z,73.60
2023-03-06T20:53:53.059Z,73.70
2023-03-06T20:56:24.627Z,73.60
2023-03-06T20:58:54.655Z,73.50
2023-03-06T21:01:33.644Z,73.50
2023-03-06T21:04:05.294Z,73.50
2023-03-06T21:06:36.077Z,73.70
2023-03-06T21:09:07.083Z,73.60
2023-03-06T21:11:36.745Z,73.50
2023-03-06T21:14:07.375Z,73.50
2023-03-06T21:16:36.894Z,73.50
2023-03-06T21:19:05.720Z,73.60
2023-03-06T21:21:35.513Z,73.70
2023-03-06T21:24:04.448Z,73.80
2023-03-06T21:26:34.675Z,73.80
2023-03-06T21:29:04.324Z,73.90
2023-03-06T21:31:35.278Z,74.00
2023-03-06T21:34:06.531Z,74.10
2023-03-06T21:36:34.918Z,74.10
2023-03-06T21:39:08.920Z,74.20
2023-03-06T21:41:38.495Z,74.30
2023-03-06T21:44:08.102Z,74.30
2023-03-06T21:46:37.849Z,74.30
2023-03-06T21:49:06.939Z,74.30
2023-03-06T21:51:35.964Z,74.30
2023-03-06T21:54:06.231Z,74.30
2023-03-06T21:56:35.992Z,74.40
2023-03-06T21:59:04.111Z,74.40
2023-03-06T22:01:32.366Z,74.50
2023-03-06T22:04:01.165Z,74.50
2023-03-06T22:06:32.594Z,74.50
2023-03-06T22:09:04.669Z,74.60
2023-03-06T22:11:37.396Z,74.60
2023-03-06T22:14:06.773Z,74.60
2023-03-06T22:16:34.524Z,74.70
2023-03-06T22:19:04.217Z,74.80
2023-03-06T22:21:32.140Z,74.80
2023-03-06T22:24:01.845Z,74.80
2023-03-06T22:26:30.475Z,74.90
2023-03-06T22:28:59.064Z,74.90
2023-03-06T22:31:30.670Z,74.90
2023-03-06T22:34:00.816Z,74.90
2023-03-06T22:36:33.414Z,75.00
2023-03-06T22:39:06.284Z,75.00
2023-03-06T22:41:37.850Z,75.20
2023-03-06T22:44:07.819Z,75.20
2023-03-06T22:46:36.460Z,75.30
2023-03-06T22:49:05.277Z,75.30
2023-03-06T22:51:33.024Z,75.30
2023-03-06T22:54:01.267Z,75.40
2023-03-06T22:56:31.213Z,75.50
2023-03-06T22:59:00.438Z,75.60
2023-03-06T23:01:32.916Z,75.70
2023-03-06T23:04:11.471Z,75.70
2023-03-06T23:06:41.708Z,75.80
2023-03-06T23:09:13.991Z,75.90
2023-03-06T23:12:00.501Z,75.90
2023-03-06T23:14:51.362Z,75.90
2023-03-06T23:17:37.749Z,75.90
2023-03-06T23:20:24.674Z,75.80
2023-03-06T23:23:13.126Z,75.80
2023-03-06T23:25:44.859Z,75.70
2023-03-06T23:28:12.893Z,75.70
2023-03-06T23:30:42.022Z,75.60
2023-03-06T23:33:11.092Z,75.50
2023-03-06T23:35:41.729Z,75.50
2023-03-06T23:38:10.930Z,75.60
2023-03-06T23:40:43.746Z,75.60
2023-03-06T23:43:11.425Z,75.70
2023-03-06T23:45:42.804Z,75.70
2023-03-06T23:48:12.967Z,75.60
2023-03-06T23:50:41.486Z,75.50
2023-03-06T23:53:12.346Z,75.60
2023-03-06T23:55:42.844Z,75.70
2023-03-06T23:58:11.277Z,75.70
